スコピエ の空港の天気 - METARとTAF

スコピエ空港 ( LWSK / SKP ) - マケドニア共和国 スコピエ
飛行場実況気象(Metar)
観測時間07/17 11:00 CEST (07/17 09:00 UTC)
風向・風速北西 5m/s 瞬間風速11m/s
視程10km以上
天気現象
なし
気温26℃
湿度32%
気圧1012hPa
METARLWSK 170900Z 32010G21KT 270V350 CAVOK 26/08 Q1012 NOSIG
過去の天気等 Google飛行場航空写真 Wunderground天気予報

過去48時間のMETAR

飛行場予報(TAF)
発表時間: 7/17 10:30 CEST (7/17 08:30 UTC)
予報対象時間: 17日11時 CEST ~ 18日11時 CEST
風向・風速北北西 4m/s
視程10km以上
なし
17日14時 CEST ~ 17日20時 CEST に一時的に
全天の4割程度の雲 雲底高度 1520m
TAF LWSK 170830Z 1709/1809 34008KT CAVOK
TEMPO 1712/1718 SCT050